sensor_id;sensor_type;location;lat;lon;timestamp;temperature;humidity
12746;DHT22;6437;53.686;10.030;2023-02-28T00:02:50;5.00;99.90
12746;DHT22;6437;53.686;10.030;2023-02-28T00:05:52;5.00;99.90
12746;DHT22;6437;53.686;10.030;2023-02-28T00:08:55;5.00;99.90
12746;DHT22;6437;53.686;10.030;2023-02-28T00:11:57;4.90;99.90
12746;DHT22;6437;53.686;10.030;2023-02-28T00:14:58;4.90;99.90
12746;DHT22;6437;53.686;10.030;2023-02-28T00:18:02;4.90;99.90
12746;DHT22;6437;53.686;10.030;2023-02-28T00:21:04;5.00;99.90
12746;DHT22;6437;53.686;10.030;2023-02-28T00:24:07;4.90;99.90
12746;DHT22;6437;53.686;10.030;2023-02-28T00:27:09;4.90;99.90
12746;DHT22;6437;53.686;10.030;2023-02-28T00:30:13;4.90;99.90
12746;DHT22;6437;53.686;10.030;2023-02-28T00:33:15;4.90;99.90
12746;DHT22;6437;53.686;10.030;2023-02-28T00:36:17;4.90;99.90
12746;DHT22;6437;53.686;10.030;2023-02-28T00:39:21;4.80;99.90
12746;DHT22;6437;53.686;10.030;2023-02-28T00:42:23;4.80;99.90
12746;DHT22;6437;53.686;10.030;2023-02-28T00:45:24;4.70;99.90
12746;DHT22;6437;53.686;10.030;2023-02-28T00:48:26;4.70;99.90
12746;DHT22;6437;53.686;10.030;2023-02-28T00:51:28;4.80;99.90
12746;DHT22;6437;53.686;10.030;2023-02-28T00:54:31;4.80;99.90
12746;DHT22;6437;53.686;10.030;2023-02-28T00:57:33;4.70;99.90
12746;DHT22;6437;53.686;10.030;2023-02-28T01:00:35;4.70;99.90
12746;DHT22;6437;53.686;10.030;2023-02-28T01:03:36;4.70;99.90
12746;DHT22;6437;53.686;10.030;2023-02-28T01:06:38;4.70;99.90
12746;DHT22;6437;53.686;10.030;2023-02-28T01:09:42;4.70;99.90
12746;DHT22;6437;53.686;10.030;2023-02-28T01:12:43;4.70;99.90
12746;DHT22;6437;53.686;10.030;2023-02-28T01:15:48;4.70;99.90
12746;DHT22;6437;53.686;10.030;2023-02-28T01:18:51;4.70;99.90
12746;DHT22;6437;53.686;10.030;2023-02-28T01:21:52;4.60;99.90
12746;DHT22;6437;53.686;10.030;2023-02-28T01:24:55;4.60;99.90
12746;DHT22;6437;53.686;10.030;2023-02-28T01:27:57;4.60;99.90
12746;DHT22;6437;53.686;10.030;2023-02-28T01:30:59;4.60;99.90
12746;DHT22;6437;53.686;10.030;2023-02-28T01:34:01;4.60;99.90
12746;DHT22;6437;53.686;10.030;2023-02-28T01:37:03;4.60;99.90
12746;DHT22;6437;53.686;10.030;2023-02-28T01:40:08;4.90;99.90
12746;DHT22;6437;53.686;10.030;2023-02-28T01:43:19;4.60;99.90
12746;DHT22;6437;53.686;10.030;2023-02-28T01:46:22;4.60;99.90
12746;DHT22;6437;53.686;10.030;2023-02-28T01:49:24;4.60;99.90
12746;DHT22;6437;53.686;10.030;2023-02-28T01:52:26;4.50;99.90
12746;DHT22;6437;53.686;10.030;2023-02-28T01:55:31;4.50;99.90
12746;DHT22;6437;53.686;10.030;2023-02-28T01:58:34;4.50;99.90
12746;DHT22;6437;53.686;10.030;2023-02-28T02:01:37;4.40;99.90
12746;DHT22;6437;53.686;10.030;2023-02-28T02:04:41;4.40;99.90
12746;DHT22;6437;53.686;10.030;2023-02-28T02:07:50;4.40;99.90
12746;DHT22;6437;53.686;10.030;2023-02-28T02:10:56;4.30;99.90
12746;DHT22;6437;53.686;10.030;2023-02-28T02:14:11;4.30;99.90
12746;DHT22;6437;53.686;10.030;2023-02-28T02:17:23;4.30;99.90
12746;DHT22;6437;53.686;10.030;2023-02-28T02:20:58;4.20;99.90
12746;DHT22;6437;53.686;10.030;2023-02-28T02:24:25;4.30;99.90
12746;DHT22;6437;53.686;10.030;2023-02-28T02:27:46;4.20;99.90
12746;DHT22;6437;53.686;10.030;2023-02-28T02:31:11;4.20;99.90
12746;DHT22;6437;53.686;10.030;2023-02-28T02:34:39;4.20;99.90
12746;DHT22;6437;53.686;10.030;2023-02-28T02:37:47;4.20;99.90
12746;DHT22;6437;53.686;10.030;2023-02-28T02:40:58;4.20;99.90
12746;DHT22;6437;53.686;10.030;2023-02-28T02:44:04;4.30;99.90
12746;DHT22;6437;53.686;10.030;2023-02-28T02:47:10;4.20;99.90
12746;DHT22;6437;53.686;10.030;2023-02-28T02:50:19;4.20;99.90
12746;DHT22;6437;53.686;10.030;2023-02-28T02:53:27;4.20;99.90
12746;DHT22;6437;53.686;10.030;2023-02-28T02:56:33;4.20;99.90
12746;DHT22;6437;53.686;10.030;2023-02-28T02:59:39;4.20;99.90
12746;DHT22;6437;53.686;10.030;2023-02-28T03:02:41;4.20;99.90
12746;DHT22;6437;53.686;10.030;2023-02-28T03:05:48;4.20;99.90
12746;DHT22;6437;53.686;10.030;2023-02-28T03:08:50;4.20;99.90
12746;DHT22;6437;53.686;10.030;2023-02-28T03:11:54;4.20;99.90
12746;DHT22;6437;53.686;10.030;2023-02-28T03:15:06;4.20;99.90
12746;DHT22;6437;53.686;10.030;2023-02-28T03:18:16;4.20;99.90
12746;DHT22;6437;53.686;10.030;2023-02-28T03:21:30;4.10;99.90
12746;DHT22;6437;53.686;10.030;2023-02-28T03:24:40;4.10;99.90
12746;DHT22;6437;53.686;10.030;2023-02-28T03:27:52;4.10;99.90
12746;DHT22;6437;53.686;10.030;2023-02-28T03:30:59;4.30;99.90
12746;DHT22;6437;53.686;10.030;2023-02-28T03:34:05;3.80;99.90
12746;DHT22;6437;53.686;10.030;2023-02-28T03:37:14;4.00;99.90
12746;DHT22;6437;53.686;10.030;2023-02-28T03:40:20;4.00;99.90
12746;DHT22;6437;53.686;10.030;2023-02-28T03:43:27;4.00;99.90
12746;DHT22;6437;53.686;10.030;2023-02-28T03:46:33;3.90;99.90
12746;DHT22;6437;53.686;10.030;2023-02-28T03:49:40;3.90;99.90
12746;DHT22;6437;53.686;10.030;2023-02-28T03:52:48;3.90;99.90
12746;DHT22;6437;53.686;10.030;2023-02-28T03:55:54;3.90;99.90
12746;DHT22;6437;53.686;10.030;2023-02-28T03:59:00;3.80;99.90
12746;DHT22;6437;53.686;10.030;2023-02-28T04:02:03;3.80;99.90
12746;DHT22;6437;53.686;10.030;2023-02-28T04:05:06;3.70;99.90
12746;DHT22;6437;53.686;10.030;2023-02-28T04:08:09;3.70;99.90
12746;DHT22;6437;53.686;10.030;2023-02-28T04:11:18;3.70;99.90
12746;DHT22;6437;53.686;10.030;2023-02-28T04:14:21;3.60;99.90
12746;DHT22;6437;53.686;10.030;2023-02-28T04:17:23;3.60;99.90
12746;DHT22;6437;53.686;10.030;2023-02-28T04:20:25;3.60;99.90
12746;DHT22;6437;53.686;10.030;2023-02-28T04:23:28;3.50;99.90
12746;DHT22;6437;53.686;10.030;2023-02-28T04:26:30;3.00;99.90
12746;DHT22;6437;53.686;10.030;2023-02-28T04:29:32;3.40;99.90
12746;DHT22;6437;53.686;10.030;2023-02-28T04:32:34;3.40;99.90
12746;DHT22;6437;53.686;10.030;2023-02-28T04:35:36;3.30;99.90
12746;DHT22;6437;53.686;10.030;2023-02-28T04:38:39;3.30;99.90
12746;DHT22;6437;53.686;10.030;2023-02-28T04:41:41;3.20;99.90
12746;DHT22;6437;53.686;10.030;2023-02-28T04:44:43;3.20;99.90
12746;DHT22;6437;53.686;10.030;2023-02-28T04:47:45;3.20;99.90
12746;DHT22;6437;53.686;10.030;2023-02-28T04:50:46;3.20;99.90
12746;DHT22;6437;53.686;10.030;2023-02-28T04:53:50;3.10;99.90
12746;DHT22;6437;53.686;10.030;2023-02-28T04:56:52;3.10;99.90
12746;DHT22;6437;53.686;10.030;2023-02-28T04:59:55;3.00;99.90
12746;DHT22;6437;53.686;10.030;2023-02-28T05:02:56;3.00;99.90
12746;DHT22;6437;53.686;10.030;2023-02-28T05:05:58;2.90;99.90
12746;DHT22;6437;53.686;10.030;2023-02-28T05:09:01;2.90;99.90
12746;DHT22;6437;53.686;10.030;2023-02-28T05:12:04;2.80;99.90
12746;DHT22;6437;53.686;10.030;2023-02-28T05:15:07;2.80;99.90
12746;DHT22;6437;53.686;10.030;2023-02-28T05:18:10;2.70;99.90
12746;DHT22;6437;53.686;10.030;2023-02-28T05:21:24;2.60;99.90
12746;DHT22;6437;53.686;10.030;2023-02-28T05:24:28;2.60;99.90
12746;DHT22;6437;53.686;10.030;2023-02-28T05:27:29;2.60;99.90
12746;DHT22;6437;53.686;10.030;2023-02-28T05:30:31;2.60;99.90
12746;DHT22;6437;53.686;10.030;2023-02-28T05:33:33;2.60;99.90
12746;DHT22;6437;53.686;10.030;2023-02-28T05:36:36;2.60;99.90
12746;DHT22;6437;53.686;10.030;2023-02-28T05:39:40;2.50;99.90
12746;DHT22;6437;53.686;10.030;2023-02-28T05:42:41;2.50;99.90
12746;DHT22;6437;53.686;10.030;2023-02-28T05:45:43;2.40;99.90
12746;DHT22;6437;53.686;10.030;2023-02-28T05:48:47;2.40;99.90
12746;DHT22;6437;53.686;10.030;2023-02-28T05:51:49;2.40;99.90
12746;DHT22;6437;53.686;10.030;2023-02-28T05:54:52;2.40;99.90
12746;DHT22;6437;53.686;10.030;2023-02-28T05:57:53;2.40;99.90
12746;DHT22;6437;53.686;10.030;2023-02-28T06:00:56;2.30;99.90
12746;DHT22;6437;53.686;10.030;2023-02-28T06:03:58;2.30;99.90
12746;DHT22;6437;53.686;10.030;2023-02-28T06:07:01;2.30;99.90
12746;DHT22;6437;53.686;10.030;2023-02-28T06:10:06;2.20;99.90
12746;DHT22;6437;53.686;10.030;2023-02-28T06:13:08;2.20;99.90
12746;DHT22;6437;53.686;10.030;2023-02-28T06:16:11;2.20;99.90
12746;DHT22;6437;53.686;10.030;2023-02-28T06:19:13;2.20;99.90
12746;DHT22;6437;53.686;10.030;2023-02-28T06:22:15;2.20;99.90
12746;DHT22;6437;53.686;10.030;2023-02-28T06:25:18;2.20;99.90
12746;DHT22;6437;53.686;10.030;2023-02-28T06:28:20;1.70;99.90
12746;DHT22;6437;53.686;10.030;2023-02-28T06:31:22;2.20;99.90
12746;DHT22;6437;53.686;10.030;2023-02-28T06:34:26;2.20;99.90
12746;DHT22;6437;53.686;10.030;2023-02-28T06:37:28;2.10;99.90
12746;DHT22;6437;53.686;10.030;2023-02-28T06:40:31;2.10;99.90
12746;DHT22;6437;53.686;10.030;2023-02-28T06:43:38;2.10;99.90
12746;DHT22;6437;53.686;10.030;2023-02-28T06:46:41;2.10;99.90
12746;DHT22;6437;53.686;10.030;2023-02-28T06:49:43;2.10;99.90
12746;DHT22;6437;53.686;10.030;2023-02-28T06:52:45;2.10;99.90
12746;DHT22;6437;53.686;10.030;2023-02-28T06:55:48;2.00;99.90
12746;DHT22;6437;53.686;10.030;2023-02-28T06:58:50;2.00;99.90
12746;DHT22;6437;53.686;10.030;2023-02-28T07:01:53;2.00;99.90
12746;DHT22;6437;53.686;10.030;2023-02-28T07:04:55;2.40;99.90
12746;DHT22;6437;53.686;10.030;2023-02-28T07:07:57;2.00;99.90
12746;DHT22;6437;53.686;10.030;2023-02-28T07:11:00;2.10;99.90
12746;DHT22;6437;53.686;10.030;2023-02-28T07:14:01;2.10;99.90
12746;DHT22;6437;53.686;10.030;2023-02-28T07:17:03;2.10;99.90
12746;DHT22;6437;53.686;10.030;2023-02-28T07:20:06;2.10;99.90
12746;DHT22;6437;53.686;10.030;2023-02-28T07:23:08;2.20;99.90
12746;DHT22;6437;53.686;10.030;2023-02-28T07:26:14;2.10;99.90
12746;DHT22;6437;53.686;10.030;2023-02-28T07:29:17;2.10;99.90
12746;DHT22;6437;53.686;10.030;2023-02-28T07:32:19;2.20;99.90
12746;DHT22;6437;53.686;10.030;2023-02-28T07:35:21;2.20;99.90
12746;DHT22;6437;53.686;10.030;2023-02-28T07:38:23;2.20;99.90
12746;DHT22;6437;53.686;10.030;2023-02-28T07:41:26;2.30;99.90
12746;DHT22;6437;53.686;10.030;2023-02-28T07:44:28;2.30;99.90
12746;DHT22;6437;53.686;10.030;2023-02-28T07:47:30;2.30;99.90
12746;DHT22;6437;53.686;10.030;2023-02-28T07:50:32;2.40;99.90
12746;DHT22;6437;53.686;10.030;2023-02-28T07:53:35;2.40;99.90
12746;DHT22;6437;53.686;10.030;2023-02-28T07:56:38;2.50;99.90
12746;DHT22;6437;53.686;10.030;2023-02-28T07:59:39;2.60;99.90
12746;DHT22;6437;53.686;10.030;2023-02-28T08:02:41;2.70;99.90
12746;DHT22;6437;53.686;10.030;2023-02-28T08:05:43;2.70;99.90
12746;DHT22;6437;53.686;10.030;2023-02-28T08:08:45;2.80;99.90
12746;DHT22;6437;53.686;10.030;2023-02-28T08:11:49;2.80;99.90
12746;DHT22;6437;53.686;10.030;2023-02-28T08:14:50;2.90;99.90
12746;DHT22;6437;53.686;10.030;2023-02-28T08:17:52;3.00;99.90
12746;DHT22;6437;53.686;10.030;2023-02-28T08:20:56;3.10;99.90
12746;DHT22;6437;53.686;10.030;2023-02-28T08:23:58;3.10;99.90
12746;DHT22;6437;53.686;10.030;2023-02-28T08:27:01;3.20;99.90
12746;DHT22;6437;53.686;10.030;2023-02-28T08:30:04;3.30;99.90
12746;DHT22;6437;53.686;10.030;2023-02-28T08:33:06;3.40;99.90
12746;DHT22;6437;53.686;10.030;2023-02-28T08:36:08;3.50;99.90
12746;DHT22;6437;53.686;10.030;2023-02-28T08:39:11;3.60;99.90
12746;DHT22;6437;53.686;10.030;2023-02-28T08:42:14;3.60;99.90
12746;DHT22;6437;53.686;10.030;2023-02-28T08:45:16;3.70;99.90
12746;DHT22;6437;53.686;10.030;2023-02-28T08:48:17;3.70;99.90
12746;DHT22;6437;53.686;10.030;2023-02-28T08:51:19;3.80;99.90
12746;DHT22;6437;53.686;10.030;2023-02-28T08:54:26;3.90;99.90
12746;DHT22;6437;53.686;10.030;2023-02-28T08:57:32;4.00;99.90
12746;DHT22;6437;53.686;10.030;2023-02-28T09:00:38;4.00;99.90
12746;DHT22;6437;53.686;10.030;2023-02-28T09:03:40;4.10;99.90
12746;DHT22;6437;53.686;10.030;2023-02-28T09:06:42;4.10;99.90
12746;DHT22;6437;53.686;10.030;2023-02-28T09:09:44;4.20;99.90
12746;DHT22;6437;53.686;10.030;2023-02-28T09:12:56;4.30;99.90
12746;DHT22;6437;53.686;10.030;2023-02-28T09:15:58;4.30;99.90
12746;DHT22;6437;53.686;10.030;2023-02-28T09:19:01;4.40;99.90
12746;DHT22;6437;53.686;10.030;2023-02-28T09:22:03;4.40;99.90
12746;DHT22;6437;53.686;10.030;2023-02-28T09:25:05;4.50;99.90
12746;DHT22;6437;53.686;10.030;2023-02-28T09:28:08;4.50;99.90
12746;DHT22;6437;53.686;10.030;2023-02-28T09:31:14;4.60;99.90
12746;DHT22;6437;53.686;10.030;2023-02-28T09:34:16;4.70;99.90
12746;DHT22;6437;53.686;10.030;2023-02-28T09:37:18;4.70;99.90
12746;DHT22;6437;53.686;10.030;2023-02-28T09:40:22;4.80;99.90
12746;DHT22;6437;53.686;10.030;2023-02-28T09:43:29;4.90;99.90
12746;DHT22;6437;53.686;10.030;2023-02-28T09:46:35;5.00;99.90
12746;DHT22;6437;53.686;10.030;2023-02-28T09:49:42;5.00;99.90
12746;DHT22;6437;53.686;10.030;2023-02-28T09:52:48;5.10;99.90
12746;DHT22;6437;53.686;10.030;2023-02-28T09:55:53;5.10;99.90
12746;DHT22;6437;53.686;10.030;2023-02-28T09:59:01;5.20;99.90
12746;DHT22;6437;53.686;10.030;2023-02-28T10:02:12;5.20;99.90
12746;DHT22;6437;53.686;10.030;2023-02-28T10:05:19;5.30;99.90
12746;DHT22;6437;53.686;10.030;2023-02-28T10:08:26;5.30;99.90
12746;DHT22;6437;53.686;10.030;2023-02-28T10:11:30;5.40;99.90
12746;DHT22;6437;53.686;10.030;2023-02-28T10:14:39;5.50;99.90
12746;DHT22;6437;53.686;10.030;2023-02-28T10:17:45;5.50;99.90
12746;DHT22;6437;53.686;10.030;2023-02-28T10:20:49;5.50;99.90
12746;DHT22;6437;53.686;10.030;2023-02-28T10:23:59;5.60;99.90
12746;DHT22;6437;53.686;10.030;2023-02-28T10:27:12;5.60;99.90
12746;DHT22;6437;53.686;10.030;2023-02-28T10:30:16;5.70;99.90
12746;DHT22;6437;53.686;10.030;2023-02-28T10:33:21;5.80;99.90
12746;DHT22;6437;53.686;10.030;2023-02-28T10:36:23;5.90;99.90
12746;DHT22;6437;53.686;10.030;2023-02-28T10:39:36;5.90;99.90
12746;DHT22;6437;53.686;10.030;2023-02-28T10:42:38;6.00;99.90
12746;DHT22;6437;53.686;10.030;2023-02-28T10:45:55;6.00;99.90
12746;DHT22;6437;53.686;10.030;2023-02-28T10:49:01;6.00;99.90
12746;DHT22;6437;53.686;10.030;2023-02-28T10:52:04;6.10;99.90
12746;DHT22;6437;53.686;10.030;2023-02-28T10:55:20;6.10;99.90
12746;DHT22;6437;53.686;10.030;2023-02-28T10:58:22;6.30;99.90
12746;DHT22;6437;53.686;10.030;2023-02-28T11:01:36;6.30;99.90
12746;DHT22;6437;53.686;10.030;2023-02-28T11:04:38;6.50;99.90
12746;DHT22;6437;53.686;10.030;2023-02-28T11:07:40;6.60;99.90
12746;DHT22;6437;53.686;10.030;2023-02-28T11:10:45;6.60;99.90
12746;DHT22;6437;53.686;10.030;2023-02-28T11:13:50;6.70;99.90
12746;DHT22;6437;53.686;10.030;2023-02-28T11:17:03;6.80;99.90
12746;DHT22;6437;53.686;10.030;2023-02-28T11:20:21;6.90;99.90
12746;DHT22;6437;53.686;10.030;2023-02-28T11:23:25;7.00;99.90
12746;DHT22;6437;53.686;10.030;2023-02-28T11:26:39;7.10;99.90
12746;DHT22;6437;53.686;10.030;2023-02-28T11:29:42;7.30;99.90
12746;DHT22;6437;53.686;10.030;2023-02-28T11:32:50;7.30;99.90
12746;DHT22;6437;53.686;10.030;2023-02-28T11:35:53;7.50;99.90
12746;DHT22;6437;53.686;10.030;2023-02-28T11:39:04;7.70;99.90
12746;DHT22;6437;53.686;10.030;2023-02-28T11:46:00;8.00;99.90
12746;DHT22;6437;53.686;10.030;2023-02-28T11:49:24;8.20;99.90
12746;DHT22;6437;53.686;10.030;2023-02-28T11:52:35;8.40;99.90
12746;DHT22;6437;53.686;10.030;2023-02-28T11:55:42;8.50;99.90
12746;DHT22;6437;53.686;10.030;2023-02-28T11:58:51;8.60;99.90
12746;DHT22;6437;53.686;10.030;2023-02-28T12:02:17;8.80;99.90
12746;DHT22;6437;53.686;10.030;2023-02-28T12:05:29;8.90;99.90
12746;DHT22;6437;53.686;10.030;2023-02-28T12:08:44;9.10;99.90
12746;DHT22;6437;53.686;10.030;2023-02-28T12:11:52;9.20;99.90
12746;DHT22;6437;53.686;10.030;2023-02-28T12:15:17;9.30;99.90
12746;DHT22;6437;53.686;10.030;2023-02-28T12:18:37;9.40;99.90
12746;DHT22;6437;53.686;10.030;2023-02-28T12:21:56;9.50;99.90
12746;DHT22;6437;53.686;10.030;2023-02-28T12:25:30;9.80;99.90
12746;DHT22;6437;53.686;10.030;2023-02-28T12:28:42;9.90;99.90
12746;DHT22;6437;53.686;10.030;2023-02-28T12:31:49;10.00;99.90
12746;DHT22;6437;53.686;10.030;2023-02-28T12:34:56;10.20;99.90
12746;DHT22;6437;53.686;10.030;2023-02-28T12:38:04;10.40;99.90
12746;DHT22;6437;53.686;10.030;2023-02-28T12:41:10;10.70;99.90
12746;DHT22;6437;53.686;10.030;2023-02-28T12:44:17;11.00;99.90
12746;DHT22;6437;53.686;10.030;2023-02-28T12:47:21;11.30;99.90
12746;DHT22;6437;53.686;10.030;2023-02-28T12:50:23;11.70;99.90
12746;DHT22;6437;53.686;10.030;2023-02-28T12:53:31;12.00;99.20
12746;DHT22;6437;53.686;10.030;2023-02-28T12:56:43;12.30;99.30
12746;DHT22;6437;53.686;10.030;2023-02-28T12:59:50;12.50;97.40
12746;DHT22;6437;53.686;10.030;2023-02-28T13:03:18;12.70;96.70
12746;DHT22;6437;53.686;10.030;2023-02-28T13:06:40;13.00;95.40
12746;DHT22;6437;53.686;10.030;2023-02-28T13:09:54;13.30;96.70
12746;DHT22;6437;53.686;10.030;2023-02-28T13:12:56;13.60;95.00
12746;DHT22;6437;53.686;10.030;2023-02-28T13:16:01;13.80;94.30
12746;DHT22;6437;53.686;10.030;2023-02-28T13:19:10;13.90;93.30
12746;DHT22;6437;53.686;10.030;2023-02-28T13:22:21;14.10;94.20
12746;DHT22;6437;53.686;10.030;2023-02-28T13:25:54;14.00;91.70
12746;DHT22;6437;53.686;10.030;2023-02-28T13:29:00;14.20;92.50
12746;DHT22;6437;53.686;10.030;2023-02-28T13:32:33;14.20;91.50
12746;DHT22;6437;53.686;10.030;2023-02-28T13:35:42;14.20;90.40
12746;DHT22;6437;53.686;10.030;2023-02-28T13:38:46;14.10;91.00
12746;DHT22;6437;53.686;10.030;2023-02-28T13:41:50;14.10;90.20
12746;DHT22;6437;53.686;10.030;2023-02-28T13:45:21;14.00;90.30
12746;DHT22;6437;53.686;10.030;2023-02-28T13:48:26;14.00;90.80
12746;DHT22;6437;53.686;10.030;2023-02-28T13:51:40;14.00;90.20
12746;DHT22;6437;53.686;10.030;2023-02-28T13:54:56;14.20;89.20
12746;DHT22;6437;53.686;10.030;2023-02-28T13:58:10;14.30;88.50
12746;DHT22;6437;53.686;10.030;2023-02-28T14:01:45;14.40;89.30
12746;DHT22;6437;53.686;10.030;2023-02-28T14:05:01;14.50;90.00
12746;DHT22;6437;53.686;10.030;2023-02-28T14:08:06;14.60;88.60
12746;DHT22;6437;53.686;10.030;2023-02-28T14:11:26;14.80;88.10
12746;DHT22;6437;53.686;10.030;2023-02-28T14:14:54;14.60;87.50
12746;DHT22;6437;53.686;10.030;2023-02-28T14:17:58;14.30;87.50
12746;DHT22;6437;53.686;10.030;2023-02-28T14:21:02;14.00;88.90
12746;DHT22;6437;53.686;10.030;2023-02-28T14:27:35;13.50;88.40
12746;DHT22;6437;53.686;10.030;2023-02-28T14:30:57;13.30;87.90
12746;DHT22;6437;53.686;10.030;2023-02-28T14:34:16;13.10;90.00
12746;DHT22;6437;53.686;10.030;2023-02-28T14:37:27;13.00;89.80
12746;DHT22;6437;53.686;10.030;2023-02-28T14:40:33;12.90;89.40
12746;DHT22;6437;53.686;10.030;2023-02-28T14:43:35;12.90;89.50
12746;DHT22;6437;53.686;10.030;2023-02-28T14:46:40;12.90;90.10
12746;DHT22;6437;53.686;10.030;2023-02-28T14:49:44;13.00;90.20
12746;DHT22;6437;53.686;10.030;2023-02-28T14:52:50;13.00;90.00
12746;DHT22;6437;53.686;10.030;2023-02-28T14:55:53;13.10;90.00
12746;DHT22;6437;53.686;10.030;2023-02-28T14:58:56;13.30;89.80
12746;DHT22;6437;53.686;10.030;2023-02-28T15:02:17;13.40;88.60
12746;DHT22;6437;53.686;10.030;2023-02-28T15:05:28;13.50;87.20
12746;DHT22;6437;53.686;10.030;2023-02-28T15:08:30;13.60;87.10
12746;DHT22;6437;53.686;10.030;2023-02-28T15:11:37;13.80;86.30
12746;DHT22;6437;53.686;10.030;2023-02-28T15:14:43;14.00;85.80
12746;DHT22;6437;53.686;10.030;2023-02-28T15:17:50;14.00;84.90
12746;DHT22;6437;53.686;10.030;2023-02-28T15:20:55;14.00;84.10
12746;DHT22;6437;53.686;10.030;2023-02-28T15:24:01;14.10;83.30
12746;DHT22;6437;53.686;10.030;2023-02-28T15:27:06;14.30;81.70
12746;DHT22;6437;53.686;10.030;2023-02-28T15:30:15;14.20;80.90
12746;DHT22;6437;53.686;10.030;2023-02-28T15:33:21;14.20;82.80
12746;DHT22;6437;53.686;10.030;2023-02-28T15:36:26;14.00;83.40
12746;DHT22;6437;53.686;10.030;2023-02-28T15:39:29;13.60;83.70
12746;DHT22;6437;53.686;10.030;2023-02-28T15:42:31;13.30;84.70
12746;DHT22;6437;53.686;10.030;2023-02-28T15:45:36;13.00;85.30
12746;DHT22;6437;53.686;10.030;2023-02-28T15:48:48;12.70;86.20
12746;DHT22;6437;53.686;10.030;2023-02-28T15:51:54;12.50;87.10
12746;DHT22;6437;53.686;10.030;2023-02-28T15:54:58;12.30;87.00
12746;DHT22;6437;53.686;10.030;2023-02-28T15:58:01;12.00;87.50
12746;DHT22;6437;53.686;10.030;2023-02-28T16:01:04;11.70;88.10
12746;DHT22;6437;53.686;10.030;2023-02-28T16:04:14;11.50;89.10
12746;DHT22;6437;53.686;10.030;2023-02-28T16:07:16;11.20;89.60
12746;DHT22;6437;53.686;10.030;2023-02-28T16:10:18;11.00;88.80
12746;DHT22;6437;53.686;10.030;2023-02-28T16:13:20;10.90;89.40
12746;DHT22;6437;53.686;10.030;2023-02-28T16:16:24;10.70;89.50
12746;DHT22;6437;53.686;10.030;2023-02-28T16:19:27;10.30;89.90
12746;DHT22;6437;53.686;10.030;2023-02-28T16:22:29;10.40;90.00
12746;DHT22;6437;53.686;10.030;2023-02-28T16:25:37;10.20;90.20
12746;DHT22;6437;53.686;10.030;2023-02-28T16:28:40;10.00;90.10
12746;DHT22;6437;53.686;10.030;2023-02-28T16:31:41;9.90;90.20
12746;DHT22;6437;53.686;10.030;2023-02-28T16:34:45;9.80;90.30
12746;DHT22;6437;53.686;10.030;2023-02-28T16:37:47;9.70;90.50
12746;DHT22;6437;53.686;10.030;2023-02-28T16:40:50;9.60;90.40
12746;DHT22;6437;53.686;10.030;2023-02-28T16:43:54;9.40;90.70
12746;DHT22;6437;53.686;10.030;2023-02-28T16:47:00;9.30;90.50
12746;DHT22;6437;53.686;10.030;2023-02-28T16:50:12;9.20;90.70
12746;DHT22;6437;53.686;10.030;2023-02-28T16:53:14;9.10;90.90
12746;DHT22;6437;53.686;10.030;2023-02-28T16:56:17;9.00;91.10
12746;DHT22;6437;53.686;10.030;2023-02-28T16:59:22;9.00;91.30
12746;DHT22;6437;53.686;10.030;2023-02-28T17:02:25;8.90;91.30
12746;DHT22;6437;53.686;10.030;2023-02-28T17:05:34;8.80;91.50
12746;DHT22;6437;53.686;10.030;2023-02-28T17:08:38;8.70;91.60
12746;DHT22;6437;53.686;10.030;2023-02-28T17:11:40;8.60;91.90
12746;DHT22;6437;53.686;10.030;2023-02-28T17:14:43;8.50;92.00
12746;DHT22;6437;53.686;10.030;2023-02-28T17:17:46;8.40;92.20
12746;DHT22;6437;53.686;10.030;2023-02-28T17:20:50;8.30;92.30
12746;DHT22;6437;53.686;10.030;2023-02-28T17:23:52;8.20;92.50
12746;DHT22;6437;53.686;10.030;2023-02-28T17:26:54;8.20;92.80
12746;DHT22;6437;53.686;10.030;2023-02-28T17:29:56;8.10;92.90
12746;DHT22;6437;53.686;10.030;2023-02-28T17:32:58;8.00;93.20
12746;DHT22;6437;53.686;10.030;2023-02-28T17:36:01;7.90;93.60
12746;DHT22;6437;53.686;10.030;2023-02-28T17:39:04;7.80;93.80
12746;DHT22;6437;53.686;10.030;2023-02-28T17:42:10;7.70;94.30
12746;DHT22;6437;53.686;10.030;2023-02-28T17:45:13;7.40;94.40
12746;DHT22;6437;53.686;10.030;2023-02-28T17:48:15;7.50;94.80
12746;DHT22;6437;53.686;10.030;2023-02-28T17:51:21;7.40;95.10
12746;DHT22;6437;53.686;10.030;2023-02-28T17:54:23;7.40;95.20
12746;DHT22;6437;53.686;10.030;2023-02-28T17:57:25;7.30;95.30
12746;DHT22;6437;53.686;10.030;2023-02-28T18:00:27;7.20;95.20
12746;DHT22;6437;53.686;10.030;2023-02-28T18:03:29;7.20;95.40
12746;DHT22;6437;53.686;10.030;2023-02-28T18:06:36;7.10;95.60
12746;DHT22;6437;53.686;10.030;2023-02-28T18:09:46;7.10;95.70
12746;DHT22;6437;53.686;10.030;2023-02-28T18:12:50;6.90;96.20
12746;DHT22;6437;53.686;10.030;2023-02-28T18:15:52;6.80;96.50
12746;DHT22;6437;53.686;10.030;2023-02-28T18:18:54;7.10;96.70
12746;DHT22;6437;53.686;10.030;2023-02-28T18:21:57;6.60;96.80
12746;DHT22;6437;53.686;10.030;2023-02-28T18:24:59;6.60;96.90
12746;DHT22;6437;53.686;10.030;2023-02-28T18:28:00;6.50;97.10
12746;DHT22;6437;53.686;10.030;2023-02-28T18:31:05;6.50;97.40
12746;DHT22;6437;53.686;10.030;2023-02-28T18:34:08;6.40;97.40
12746;DHT22;6437;53.686;10.030;2023-02-28T18:37:11;6.40;97.60
12746;DHT22;6437;53.686;10.030;2023-02-28T18:40:13;6.40;97.80
12746;DHT22;6437;53.686;10.030;2023-02-28T18:43:15;6.30;98.00
12746;DHT22;6437;53.686;10.030;2023-02-28T18:46:18;6.30;98.10
12746;DHT22;6437;53.686;10.030;2023-02-28T18:49:20;6.20;98.00
12746;DHT22;6437;53.686;10.030;2023-02-28T18:52:23;6.20;98.00
12746;DHT22;6437;53.686;10.030;2023-02-28T18:55:25;6.10;98.30
12746;DHT22;6437;53.686;10.030;2023-02-28T18:58:27;6.10;98.60
12746;DHT22;6437;53.686;10.030;2023-02-28T19:01:29;6.00;98.90
12746;DHT22;6437;53.686;10.030;2023-02-28T19:04:32;5.80;98.90
12746;DHT22;6437;53.686;10.030;2023-02-28T19:07:35;5.90;99.00
12746;DHT22;6437;53.686;10.030;2023-02-28T19:10:38;5.90;99.50
12746;DHT22;6437;53.686;10.030;2023-02-28T19:13:40;5.90;99.20
12746;DHT22;6437;53.686;10.030;2023-02-28T19:16:45;5.80;99.50
12746;DHT22;6437;53.686;10.030;2023-02-28T19:19:47;5.70;99.80
12746;DHT22;6437;53.686;10.030;2023-02-28T19:22:50;5.60;99.80
12746;DHT22;6437;53.686;10.030;2023-02-28T19:25:52;5.60;99.80
12746;DHT22;6437;53.686;10.030;2023-02-28T19:28:55;5.60;99.90
12746;DHT22;6437;53.686;10.030;2023-02-28T19:31:57;5.50;99.80
12746;DHT22;6437;53.686;10.030;2023-02-28T19:34:59;5.50;99.90
12746;DHT22;6437;53.686;10.030;2023-02-28T19:38:03;5.50;99.90
12746;DHT22;6437;53.686;10.030;2023-02-28T19:41:08;5.40;99.90
12746;DHT22;6437;53.686;10.030;2023-02-28T19:44:10;5.30;99.80
12746;DHT22;6437;53.686;10.030;2023-02-28T19:47:13;5.30;99.90
12746;DHT22;6437;53.686;10.030;2023-02-28T19:50:15;5.20;99.90
12746;DHT22;6437;53.686;10.030;2023-02-28T19:53:18;5.20;99.90
12746;DHT22;6437;53.686;10.030;2023-02-28T19:56:20;5.20;99.90